createdAt,value
2016-09-29T03:00:25.210Z,50.28
2016-09-29T03:00:50.790Z,49.9
2016-09-29T03:01:16.351Z,50.09
2016-09-29T03:01:41.916Z,50.09
2016-09-29T03:04:08.781Z,50.18
2016-09-29T03:05:33.120Z,50.18
2016-09-29T03:05:58.701Z,49.99
2016-09-29T03:06:24.263Z,50.09
2016-09-29T03:06:49.925Z,50.18
2016-09-29T03:07:15.637Z,50.18
2016-09-29T03:07:41.196Z,50.09
2016-09-29T03:08:06.751Z,50.09
2016-09-29T03:08:32.308Z,50.18
2016-09-29T03:08:57.979Z,50.18
2016-09-29T03:09:23.510Z,50.18
2016-09-29T03:09:49.055Z,50.18
2016-09-29T03:10:14.616Z,50.09
2016-09-29T03:10:40.154Z,50.18
2016-09-29T03:11:05.741Z,50.09
2016-09-29T03:12:08.942Z,50.09
2016-09-29T03:12:34.629Z,50.18
2016-09-29T03:13:00.189Z,50.18
2016-09-29T03:13:53.165Z,50.09
2016-09-29T03:14:18.755Z,49.9
2016-09-29T03:14:44.328Z,50.09
2016-09-29T03:15:09.932Z,50.28
2016-09-29T03:16:08.014Z,50.18
2016-09-29T03:16:33.583Z,50.09
2016-09-29T03:16:59.130Z,50.18
2016-09-29T03:17:24.733Z,50.28
2016-09-29T03:17:50.280Z,50.09
2016-09-29T03:18:53.507Z,49.8
2016-09-29T03:19:19.231Z,49.9
2016-09-29T03:19:44.867Z,49.8
2016-09-29T03:20:10.432Z,50.18
2016-09-29T03:20:35.983Z,49.8
2016-09-29T03:21:01.682Z,50.18
2016-09-29T03:21:27.144Z,49.99
2016-09-29T03:21:52.732Z,50.18
2016-09-29T03:22:18.416Z,50.09
2016-09-29T03:22:43.983Z,50.09
2016-09-29T03:23:09.562Z,50.18
2016-09-29T03:23:35.213Z,50.18
2016-09-29T03:24:00.843Z,49.9
2016-09-29T03:24:26.403Z,50.09
2016-09-29T03:24:52.015Z,50.09
2016-09-29T03:25:17.565Z,50.28
2016-09-29T03:25:43.211Z,49.99
2016-09-29T03:26:08.931Z,50.09
2016-09-29T03:26:34.484Z,50.28
2016-09-29T03:27:00.133Z,50.18
2016-09-29T03:27:25.791Z,50.18
2016-09-29T03:27:51.214Z,49.8
2016-09-29T03:28:16.783Z,50.18
2016-09-29T03:28:42.342Z,50.09
2016-09-29T03:29:07.922Z,50.18
2016-09-29T03:29:33.494Z,50.09
2016-09-29T03:29:59.167Z,49.8
2016-09-29T03:30:24.924Z,50.09
2016-09-29T03:30:50.484Z,50.09
2016-09-29T03:31:16.070Z,49.8
2016-09-29T03:31:41.635Z,49.8
2016-09-29T03:32:07.257Z,49.99
2016-09-29T03:32:32.897Z,50.28
2016-09-29T03:32:58.472Z,49.9
2016-09-29T03:33:24.125Z,49.9
2016-09-29T03:33:49.684Z,50.18
2016-09-29T03:34:15.250Z,50.09
2016-09-29T03:34:40.875Z,49.8
2016-09-29T03:35:06.456Z,49.9
2016-09-29T03:35:32.040Z,50.28
2016-09-29T03:35:57.604Z,50.28
2016-09-29T03:36:23.238Z,49.99
2016-09-29T03:36:48.804Z,50.09
2016-09-29T03:37:14.378Z,50.09
2016-09-29T03:37:39.979Z,49.8
2016-09-29T03:38:05.607Z,49.9
2016-09-29T03:38:31.182Z,49.9
2016-09-29T03:38:56.730Z,50.09
2016-09-29T03:39:22.288Z,49.9
2016-09-29T03:39:47.925Z,50.09
2016-09-29T03:40:13.439Z,50.18
2016-09-29T03:40:39.006Z,50.09
2016-09-29T03:41:04.576Z,49.9
2016-09-29T03:41:30.162Z,49.9
2016-09-29T03:41:55.735Z,49.9
2016-09-29T03:42:21.421Z,49.9
2016-09-29T03:42:46.992Z,50.18
2016-09-29T03:43:12.563Z,49.99
2016-09-29T03:43:38.234Z,50.18
2016-09-29T03:44:03.801Z,50.18
2016-09-29T03:44:29.444Z,49.8
2016-09-29T03:44:55.049Z,49.9
2016-09-29T03:45:20.622Z,50.18
2016-09-29T03:45:46.200Z,50.28
2016-09-29T03:46:11.759Z,50.09
2016-09-29T03:46:37.324Z,50.18
2016-09-29T03:47:02.892Z,50.09
2016-09-29T03:47:28.467Z,50.09
2016-09-29T03:47:54.099Z,50.09
2016-09-29T03:48:19.665Z,50.18
2016-09-29T03:48:45.273Z,50.09
2016-09-29T03:49:10.843Z,50.09
2016-09-29T03:49:36.444Z,50.38
2016-09-29T03:50:02.026Z,50.09
2016-09-29T03:50:27.588Z,50.47
2016-09-29T03:50:53.162Z,50.09
2016-09-29T03:51:18.755Z,50.09
2016-09-29T03:51:44.396Z,50.47
2016-09-29T03:52:09.971Z,50.09
2016-09-29T03:52:35.613Z,50.28
2016-09-29T03:53:01.194Z,50.57
2016-09-29T03:53:26.751Z,50.57
2016-09-29T03:53:52.444Z,50.47
2016-09-29T03:54:18.004Z,50.18
2016-09-29T03:54:43.556Z,50.28
2016-09-29T03:55:09.254Z,50.18
2016-09-29T03:55:34.825Z,50.28
2016-09-29T03:56:00.489Z,50.47
2016-09-29T03:56:26.054Z,50.38
2016-09-29T03:56:51.624Z,50.47
2016-09-29T03:57:17.242Z,50.47
2016-09-29T03:57:42.794Z,50.57
2016-09-29T03:58:08.521Z,50.18
2016-09-29T03:59:06.638Z,50.28
2016-09-29T03:59:32.293Z,50.28
2016-09-29T03:59:57.855Z,50.28
2016-09-29T04:00:23.416Z,50.18
2016-09-29T04:00:49.114Z,50.38
2016-09-29T04:01:14.751Z,50.28
2016-09-29T04:01:40.338Z,50.28
2016-09-29T04:02:05.914Z,50.57
2016-09-29T04:02:31.539Z,50.28
2016-09-29T04:02:57.112Z,50.38
2016-09-29T04:03:22.684Z,50.38
2016-09-29T04:03:48.271Z,50.38
2016-09-29T04:04:13.822Z,50.28
2016-09-29T04:04:39.419Z,50.09
2016-09-29T04:05:05.004Z,50.18
2016-09-29T04:05:30.634Z,50.28
2016-09-29T04:05:56.194Z,50.28
2016-09-29T04:06:21.877Z,50.18
2016-09-29T04:06:47.523Z,50.38
2016-09-29T04:07:13.091Z,50.28
2016-09-29T04:07:38.764Z,50.18
2016-09-29T04:08:04.566Z,50.18
2016-09-29T04:08:30.204Z,50.28
2016-09-29T04:08:55.774Z,50.28
2016-09-29T04:09:21.401Z,50.28
2016-09-29T04:09:46.956Z,50.38
2016-09-29T04:10:12.533Z,50.28
2016-09-29T04:10:38.092Z,50.18
2016-09-29T04:11:03.649Z,50.47
2016-09-29T04:11:29.222Z,50.76
2016-09-29T04:11:54.845Z,50.86
2016-09-29T04:13:08.311Z,50.67
2016-09-29T04:13:33.953Z,50.86
2016-09-29T04:13:59.548Z,50.86
2016-09-29T04:14:25.095Z,51.05
2016-09-29T04:14:50.690Z,50.86
2016-09-29T04:15:16.218Z,50.76
2016-09-29T04:15:41.778Z,50.86
2016-09-29T04:16:07.353Z,50.57
2016-09-29T04:16:32.963Z,50.67
2016-09-29T04:16:58.538Z,50.86
2016-09-29T04:18:06.810Z,51.15
2016-09-29T04:18:32.398Z,50.86
2016-09-29T04:18:57.969Z,51.25
2016-09-29T04:19:23.608Z,50.96
2016-09-29T04:19:49.154Z,51.03
2016-09-29T04:20:14.698Z,50.96
2016-09-29T04:20:40.259Z,50.96
2016-09-29T04:21:05.793Z,50.76
2016-09-29T04:21:31.331Z,50.86
2016-09-29T04:21:57.006Z,50.96
2016-09-29T04:22:22.614Z,50.86
2016-09-29T04:22:48.171Z,50.93
2016-09-29T04:23:13.846Z,51.25
2016-09-29T04:23:39.421Z,51.25
2016-09-29T04:24:04.948Z,50.86
2016-09-29T04:24:30.513Z,51.05
2016-09-29T04:24:56.093Z,50.76
2016-09-29T04:25:21.655Z,50.76
2016-09-29T04:25:47.215Z,50.86
2016-09-29T04:26:12.804Z,50.86
2016-09-29T04:26:38.353Z,50.96
2016-09-29T04:27:03.985Z,51.05
2016-09-29T04:27:29.574Z,50.86
2016-09-29T04:27:55.140Z,50.96
2016-09-29T04:28:20.696Z,50.86
2016-09-29T04:28:46.289Z,50.96
2016-09-29T04:29:11.863Z,51.05
2016-09-29T04:29:37.432Z,50.76
2016-09-29T04:30:03.022Z,50.86
2016-09-29T04:30:28.582Z,50.86
2016-09-29T04:30:54.246Z,50.86
2016-09-29T04:31:19.796Z,51.15
2016-09-29T04:31:45.349Z,50.57
2016-09-29T04:32:10.890Z,50.76
2016-09-29T04:32:36.439Z,50.76
2016-09-29T04:33:02.021Z,50.86
2016-09-29T04:33:27.572Z,51.05
2016-09-29T04:33:53.105Z,51.15
2016-09-29T04:34:18.724Z,50.86
2016-09-29T04:34:44.313Z,50.86
2016-09-29T04:35:09.877Z,51.05
2016-09-29T04:35:35.441Z,50.76
2016-09-29T04:36:01.079Z,50.76
2016-09-29T04:36:26.629Z,50.86
2016-09-29T04:36:52.171Z,50.86
2016-09-29T04:37:17.722Z,50.67
2016-09-29T04:37:43.301Z,50.76
2016-09-29T04:38:08.910Z,50.57
2016-09-29T04:38:34.467Z,50.76
2016-09-29T04:39:00.021Z,50.67
2016-09-29T04:39:25.573Z,50.57
2016-09-29T04:39:51.157Z,50.28
2016-09-29T04:40:16.692Z,50.28
2016-09-29T04:40:42.293Z,50.47
2016-09-29T04:41:07.827Z,50.28
2016-09-29T04:41:33.380Z,50.28
2016-09-29T04:41:59.508Z,50.47
2016-09-29T04:42:25.094Z,50.57
2016-09-29T04:42:50.634Z,50.09
2016-09-29T04:43:16.197Z,50.09
2016-09-29T04:43:41.746Z,50.18
2016-09-29T04:44:07.356Z,49.99
2016-09-29T04:44:32.900Z,50.09
2016-09-29T04:44:58.459Z,50.09
2016-09-29T04:45:24.108Z,49.99
2016-09-29T04:45:49.669Z,50.57
2016-09-29T04:46:15.315Z,50.57
2016-09-29T04:46:40.888Z,49.99
2016-09-29T04:47:06.423Z,50.09
2016-09-29T04:47:31.964Z,50.18
2016-09-29T04:47:57.510Z,50.09
2016-09-29T04:48:23.140Z,50.28
2016-09-29T04:48:48.741Z,50.28
2016-09-29T04:49:14.339Z,50.09
2016-09-29T04:49:39.885Z,50.18
2016-09-29T04:50:05.467Z,50.09
2016-09-29T04:50:31.110Z,50.09
2016-09-29T04:50:56.661Z,50.28
2016-09-29T04:51:22.233Z,49.99
2016-09-29T04:51:47.823Z,50.09
2016-09-29T04:52:13.454Z,49.99
2016-09-29T04:52:39.013Z,49.99
2016-09-29T04:53:04.593Z,50.18
2016-09-29T04:53:30.280Z,50.18
2016-09-29T04:53:55.868Z,50.18
2016-09-29T04:54:21.472Z,50.18
2016-09-29T04:54:47.035Z,50.18
2016-09-29T04:55:12.654Z,50.09
2016-09-29T04:55:38.269Z,50.18
2016-09-29T04:56:03.843Z,49.9
2016-09-29T04:56:29.531Z,49.8
2016-09-29T04:56:55.103Z,49.8
2016-09-29T04:57:20.667Z,50.38
2016-09-29T04:57:46.325Z,50.28
2016-09-29T04:58:11.917Z,50.28
2016-09-29T04:58:37.472Z,50.38
2016-09-29T04:59:03.153Z,50.28
2016-09-29T04:59:28.643Z,50.28
2016-09-29T04:59:54.228Z,50.38
2016-09-29T05:00:19.853Z,49.7
2016-09-29T05:00:45.422Z,49.8
2016-09-29T05:01:10.957Z,49.7
2016-09-29T05:01:36.526Z,49.6
2016-09-29T05:02:02.067Z,49.6
2016-09-29T05:02:27.669Z,49.7
2016-09-29T05:02:53.277Z,49.9
2016-09-29T05:03:18.851Z,49.8
2016-09-29T05:03:44.476Z,49.6
2016-09-29T05:04:10.024Z,49.7
2016-09-29T05:04:35.645Z,49.8
2016-09-29T05:05:01.200Z,49.51
2016-09-29T05:05:26.816Z,49.7
2016-09-29T05:05:52.424Z,49.6
2016-09-29T05:06:17.998Z,49.7
2016-09-29T05:06:43.713Z,49.7
2016-09-29T05:07:09.353Z,49.51
2016-09-29T05:07:34.922Z,49.6
2016-09-29T05:08:00.533Z,49.7
2016-09-29T05:08:26.109Z,49.7
2016-09-29T05:08:51.900Z,49.7
2016-09-29T05:09:17.632Z,49.7
2016-09-29T05:10:10.672Z,49.7
2016-09-29T05:10:36.235Z,49.7
2016-09-29T05:11:01.878Z,49.6
2016-09-29T05:11:27.482Z,49.6
2016-09-29T05:11:53.093Z,49.8
2016-09-29T05:12:18.756Z,49.7
2016-09-29T05:12:44.342Z,49.7
2016-09-29T05:13:09.968Z,49.7
2016-09-29T05:13:35.540Z,49.7
2016-09-29T05:14:01.110Z,49.6
2016-09-29T05:14:26.768Z,49.6
2016-09-29T05:14:52.481Z,49.6
2016-09-29T05:15:18.075Z,49.7
2016-09-29T05:15:43.651Z,49.41
2016-09-29T05:16:09.211Z,49.7
2016-09-29T05:16:34.854Z,49.6
2016-09-29T05:17:00.470Z,49.6
2016-09-29T05:17:26.052Z,49.6
2016-09-29T05:17:51.721Z,49.6
2016-09-29T05:18:17.275Z,49.51
2016-09-29T05:18:42.883Z,49.51
2016-09-29T05:19:08.537Z,49.51
2016-09-29T05:20:55.207Z,49.12
2016-09-29T05:22:08.790Z,49.7
2016-09-29T05:22:34.349Z,49.99
2016-09-29T05:23:00.019Z,49.8
2016-09-29T05:23:25.619Z,49.12
2016-09-29T05:23:51.172Z,49.8
2016-09-29T05:24:16.754Z,49.22
2016-09-29T05:25:30.362Z,49.32
2016-09-29T05:25:56.012Z,49.8
2016-09-29T05:26:21.572Z,49.51
2016-09-29T05:26:47.124Z,49.32
2016-09-29T05:27:12.773Z,49.41
2016-09-29T05:27:38.413Z,49.41
2016-09-29T05:28:04.096Z,49.8
2016-09-29T05:28:29.654Z,49.51
2016-09-29T05:28:55.235Z,50.09
2016-09-29T05:29:20.890Z,49.6
2016-09-29T05:29:46.483Z,50.09
2016-09-29T05:30:12.034Z,49.7
2016-09-29T05:30:37.567Z,49.7
2016-09-29T05:31:03.113Z,49.7
2016-09-29T05:31:28.679Z,49.51
2016-09-29T05:31:54.222Z,49.51
2016-09-29T05:32:19.848Z,49.7
2016-09-29T05:32:45.421Z,49.6
2016-09-29T05:33:10.984Z,49.41
2016-09-29T05:34:09.097Z,49.99
2016-09-29T05:34:34.729Z,49.99
2016-09-29T05:35:00.309Z,49.7
2016-09-29T05:35:25.879Z,49.32
2016-09-29T05:35:51.417Z,49.99
2016-09-29T05:36:16.958Z,49.8
2016-09-29T05:36:42.497Z,49.32
2016-09-29T05:37:08.112Z,49.51
2016-09-29T05:37:33.653Z,49.99
2016-09-29T05:37:59.198Z,49.8
2016-09-29T05:38:24.746Z,49.32
2016-09-29T05:38:50.371Z,49.9
2016-09-29T05:39:15.915Z,49.12
2016-09-29T05:39:41.489Z,49.51
2016-09-29T05:40:07.212Z,49.51
2016-09-29T05:40:32.895Z,49.99
2016-09-29T05:40:58.462Z,49.8
2016-09-29T05:42:01.683Z,50.18
2016-09-29T05:42:27.249Z,50.09
2016-09-29T05:42:52.809Z,50.18
2016-09-29T05:43:18.373Z,50.09
2016-09-29T05:44:11.340Z,49.6
2016-09-29T05:44:36.955Z,49.7
2016-09-29T05:45:02.527Z,50.09
2016-09-29T05:45:28.091Z,50.09
2016-09-29T05:45:53.656Z,49.6
2016-09-29T05:46:19.207Z,49.7
2016-09-29T05:46:44.788Z,49.7
2016-09-29T05:47:10.356Z,49.41
2016-09-29T05:47:36.075Z,49.6
2016-09-29T05:48:49.515Z,49.51
2016-09-29T05:49:15.089Z,49.51
2016-09-29T05:49:40.652Z,49.99
2016-09-29T05:50:06.297Z,50.09
2016-09-29T05:50:31.848Z,50.09
2016-09-29T05:50:57.419Z,49.22
2016-09-29T05:51:23.117Z,49.8
2016-09-29T05:51:48.687Z,49.6
2016-09-29T05:52:14.361Z,49.8
2016-09-29T05:52:40.025Z,50.09
2016-09-29T05:53:05.505Z,49.7
2016-09-29T05:53:31.188Z,50.09
2016-09-29T05:53:56.764Z,49.99
2016-09-29T05:54:22.381Z,49.7
2016-09-29T05:54:47.980Z,49.51
2016-09-29T05:55:13.519Z,49.7
2016-09-29T05:55:39.161Z,50.09
2016-09-29T05:56:04.708Z,49.7
2016-09-29T05:56:30.278Z,49.41
2016-09-29T05:56:55.863Z,49.7
2016-09-29T05:57:21.817Z,49.51
2016-09-29T05:57:47.442Z,50.18
2016-09-29T05:58:13.003Z,49.8
2016-09-29T05:58:38.559Z,49.7
2016-09-29T05:59:04.201Z,49.7
2016-09-29T05:59:29.779Z,49.7
2016-09-29T05:59:55.384Z,49.41
2016-09-29T06:01:03.703Z,49.7
2016-09-29T06:01:29.271Z,49.32
2016-09-29T06:01:54.827Z,49.51
2016-09-29T06:02:20.412Z,49.7
2016-09-29T06:02:46.009Z,49.7
2016-09-29T06:03:11.613Z,49.7
2016-09-29T06:03:37.186Z,49.7
2016-09-29T06:04:02.809Z,49.51
2016-09-29T06:04:28.376Z,49.7
2016-09-29T06:04:53.940Z,49.6
2016-09-29T06:05:19.503Z,49.51
2016-09-29T06:06:27.828Z,49.41
2016-09-29T06:06:53.397Z,49.51
2016-09-29T06:07:18.961Z,49.41
2016-09-29T06:07:44.550Z,49.7
2016-09-29T06:08:10.115Z,49.6
2016-09-29T06:08:35.679Z,49.41
2016-09-29T06:09:01.303Z,49.51
2016-09-29T06:09:26.852Z,49.6
2016-09-29T06:09:52.402Z,49.51
2016-09-29T06:10:17.969Z,49.51
2016-09-29T06:10:43.513Z,49.6
2016-09-29T06:11:09.050Z,49.6
2016-09-29T06:11:34.625Z,49.41
2016-09-29T06:12:00.183Z,49.51
2016-09-29T06:12:25.741Z,49.51
2016-09-29T06:12:51.279Z,49.6
2016-09-29T06:13:16.854Z,49.7
2016-09-29T06:13:42.420Z,49.51
2016-09-29T06:14:07.979Z,49.41
2016-09-29T06:14:33.568Z,49.41
2016-09-29T06:14:59.127Z,49.32
2016-09-29T06:15:24.695Z,49.32
2016-09-29T06:15:50.258Z,49.22
2016-09-29T06:16:15.808Z,49.22
2016-09-29T06:16:41.388Z,49.32
2016-09-29T06:17:06.958Z,49.22
2016-09-29T06:17:32.610Z,49.6
2016-09-29T06:17:58.184Z,49.51
2016-09-29T06:18:23.745Z,49.6
2016-09-29T06:18:49.427Z,49.6
2016-09-29T06:19:14.978Z,49.7
2016-09-29T06:19:40.632Z,49.51
2016-09-29T06:20:06.203Z,49.51
2016-09-29T06:20:31.767Z,49.32
2016-09-29T06:20:57.340Z,49.12
2016-09-29T06:21:22.892Z,48.93
2016-09-29T06:21:48.450Z,49.6
2016-09-29T06:22:14.005Z,49.32
2016-09-29T06:22:39.551Z,49.12
2016-09-29T06:23:05.124Z,49.41
2016-09-29T06:23:30.820Z,49.12
2016-09-29T06:23:56.387Z,49.12
2016-09-29T06:24:21.969Z,49.12
2016-09-29T06:24:47.523Z,49.41
2016-09-29T06:25:13.112Z,49.41
2016-09-29T06:25:38.679Z,49.41
2016-09-29T06:26:04.255Z,49.12
2016-09-29T06:26:29.806Z,49.41
2016-09-29T06:26:55.380Z,49.32
2016-09-29T06:27:20.938Z,49.41
2016-09-29T06:27:46.521Z,49.41
2016-09-29T06:28:12.094Z,49.22
2016-09-29T06:28:37.652Z,49.12
2016-09-29T06:29:03.195Z,49.41
2016-09-29T06:29:28.790Z,49.41
2016-09-29T06:29:54.350Z,49.22
2016-09-29T06:30:20.008Z,49.22
2016-09-29T06:30:45.557Z,49.22
2016-09-29T06:31:11.182Z,49.02
2016-09-29T06:31:36.740Z,49.02
2016-09-29T06:32:02.318Z,48.93
2016-09-29T06:32:27.897Z,49.02
2016-09-29T06:32:53.455Z,49.22
2016-09-29T06:33:19.007Z,49.22
2016-09-29T06:33:44.569Z,49.22
2016-09-29T06:34:10.151Z,49.12
2016-09-29T06:34:35.731Z,49.22
2016-09-29T06:35:01.334Z,49.22
2016-09-29T06:35:26.894Z,49.22
2016-09-29T06:35:52.455Z,49.32
2016-09-29T06:36:18.008Z,49.32
2016-09-29T06:36:43.574Z,49.02
2016-09-29T06:37:09.177Z,49.12
2016-09-29T06:37:34.756Z,49.02
2016-09-29T06:38:00.330Z,49.02
2016-09-29T06:38:25.890Z,49.41
2016-09-29T06:38:51.444Z,49.12
2016-09-29T06:39:17.018Z,49.12
2016-09-29T06:39:42.580Z,49.12
2016-09-29T06:40:08.138Z,49.02
2016-09-29T06:40:33.736Z,49.02
2016-09-29T06:40:59.295Z,48.83
2016-09-29T06:41:24.849Z,48.93
2016-09-29T06:41:50.432Z,48.83
2016-09-29T06:42:16.032Z,48.93
2016-09-29T06:42:41.582Z,48.83
2016-09-29T06:43:07.137Z,49.12
2016-09-29T06:43:32.726Z,48.83
2016-09-29T06:43:58.280Z,48.74
2016-09-29T06:44:23.853Z,49.02
2016-09-29T06:44:49.424Z,49.02
2016-09-29T06:45:14.980Z,49.12
2016-09-29T06:45:40.544Z,49.12
2016-09-29T06:46:06.200Z,49.02
2016-09-29T06:46:31.748Z,49.12
2016-09-29T06:46:57.312Z,49.12
2016-09-29T06:48:05.739Z,49.12
2016-09-29T06:48:31.315Z,49.12
2016-09-29T06:48:56.875Z,48.93
2016-09-29T06:49:22.441Z,49.32
2016-09-29T06:49:47.999Z,49.32
2016-09-29T06:50:13.551Z,48.74
2016-09-29T06:50:39.110Z,48.54
2016-09-29T06:51:04.676Z,48.83
2016-09-29T06:52:12.947Z,48.74
2016-09-29T06:52:38.524Z,48.74
2016-09-29T06:53:04.113Z,48.64
2016-09-29T06:53:29.669Z,48.74
2016-09-29T06:53:55.229Z,48.54
2016-09-29T06:54:20.761Z,48.64
2016-09-29T06:54:46.552Z,48.35
2016-09-29T06:55:12.106Z,48.44
2016-09-29T06:55:37.689Z,48.35
2016-09-29T06:56:03.321Z,48.35
2016-09-29T06:56:28.898Z,48.44
2016-09-29T06:56:54.486Z,48.35
2016-09-29T06:57:20.180Z,48.44
2016-09-29T06:57:45.760Z,48.66
2016-09-29T06:58:11.329Z,48.54
2016-09-29T06:58:36.907Z,48.54
2016-09-29T06:59:02.470Z,48.54
2016-09-29T06:59:28.033Z,48.44
2016-09-29T06:59:53.658Z,48.57
2016-09-29T07:00:19.238Z,48.44
2016-09-29T07:00:44.793Z,48.54
2016-09-29T07:01:10.339Z,48.76
2016-09-29T07:01:35.912Z,48.64
2016-09-29T07:02:01.508Z,48.64
2016-09-29T07:02:27.198Z,48.54
2016-09-29T07:02:52.787Z,48.64
2016-09-29T07:03:18.360Z,48.74
2016-09-29T07:03:43.940Z,48.54
2016-09-29T07:04:09.547Z,48.16
2016-09-29T07:04:35.120Z,47.96
2016-09-29T07:05:00.680Z,48.25
2016-09-29T07:05:26.253Z,48.28
2016-09-29T07:05:51.815Z,47.77
2016-09-29T07:06:17.393Z,48.18
2016-09-29T07:06:42.963Z,48.35
2016-09-29T07:07:08.531Z,48.18
2016-09-29T07:07:34.124Z,48.06
2016-09-29T07:07:59.676Z,48.25
2016-09-29T07:08:25.238Z,48.08
2016-09-29T07:08:50.868Z,48.06
2016-09-29T07:09:16.516Z,48.18
2016-09-29T07:09:42.088Z,48.18
2016-09-29T07:10:07.646Z,48.37
2016-09-29T07:10:33.261Z,48.37
2016-09-29T07:10:58.823Z,48.18
2016-09-29T07:11:24.389Z,48.37
2016-09-29T07:11:49.977Z,48.47
2016-09-29T07:12:15.686Z,48.47
2016-09-29T07:13:08.971Z,47.99
2016-09-29T07:13:34.529Z,47.89
2016-09-29T07:14:00.285Z,47.89
2016-09-29T07:15:14.768Z,47.89
2016-09-29T07:17:20.832Z,48.08
2016-09-29T07:17:47.273Z,47.89
2016-09-29T07:18:12.840Z,47.41
2016-09-29T07:18:38.410Z,47.31
2016-09-29T07:19:04.090Z,48.08
2016-09-29T07:19:29.658Z,47.89
2016-09-29T07:19:55.201Z,47.89
2016-09-29T07:20:20.779Z,47.12
2016-09-29T07:20:46.449Z,47.5
2016-09-29T07:21:12.008Z,47.31
2016-09-29T07:21:37.617Z,47.02
2016-09-29T07:22:03.298Z,47.31
2016-09-29T07:22:28.899Z,47.31
2016-09-29T07:22:54.480Z,47.22
2016-09-29T07:23:20.050Z,47.22
2016-09-29T07:23:45.675Z,47.31
2016-09-29T07:24:11.239Z,46.83
2016-09-29T07:24:36.929Z,47.22
2016-09-29T07:25:02.500Z,46.44
2016-09-29T07:25:28.072Z,46.83
2016-09-29T07:25:53.633Z,46.64
2016-09-29T07:26:19.231Z,46.92
2016-09-29T07:26:44.956Z,46.44
2016-09-29T07:27:10.551Z,46.64
2016-09-29T07:27:36.146Z,46.34
2016-09-29T07:28:01.671Z,46.54
2016-09-29T07:28:27.232Z,46.64
2016-09-29T07:28:52.812Z,46.73
2016-09-29T07:29:18.386Z,46.54
2016-09-29T07:29:43.923Z,46.64
2016-09-29T07:30:09.536Z,46.34
2016-09-29T07:30:35.109Z,46.64
2016-09-29T07:31:00.698Z,46.44
2016-09-29T07:31:26.242Z,46.64
2016-09-29T07:31:51.874Z,46.34
2016-09-29T07:32:17.429Z,46.06
2016-09-29T07:32:43.066Z,46.34
2016-09-29T07:33:08.727Z,46.44
2016-09-29T07:33:34.301Z,46.54
2016-09-29T07:33:59.961Z,45.76
2016-09-29T07:34:25.532Z,46.64
2016-09-29T07:34:51.120Z,46.54
2016-09-29T07:35:16.729Z,46.25
2016-09-29T07:35:42.284Z,45.96
2016-09-29T07:36:07.862Z,46.15
2016-09-29T07:36:33.416Z,45.96
2016-09-29T07:36:58.965Z,45.96
2016-09-29T07:37:24.532Z,46.25
2016-09-29T07:37:50.114Z,45.86
2016-09-29T07:38:15.711Z,46.34
2016-09-29T07:38:41.272Z,46.34
2016-09-29T07:39:06.820Z,46.06
2016-09-29T07:39:32.506Z,46.06
2016-09-29T07:39:58.066Z,46.06
2016-09-29T07:40:23.657Z,45.67
2016-09-29T07:40:49.314Z,46.15
2016-09-29T07:41:14.879Z,46.15
2016-09-29T07:41:40.436Z,46.06
2016-09-29T07:42:43.710Z,46.15
2016-09-29T07:43:09.305Z,45.48
2016-09-29T07:43:34.908Z,45.38
2016-09-29T07:44:00.456Z,45.48
2016-09-29T07:44:26.018Z,45.38
2016-09-29T07:44:51.603Z,45.67
2016-09-29T07:45:17.130Z,45.67
2016-09-29T07:45:42.672Z,45.96
2016-09-29T07:46:08.230Z,46.06
2016-09-29T07:46:33.774Z,45.57
2016-09-29T07:46:59.413Z,45.86
2016-09-29T07:47:24.971Z,45.48
2016-09-29T07:47:50.536Z,45.57
2016-09-29T07:48:16.091Z,45.38
2016-09-29T07:48:41.641Z,45.18
2016-09-29T07:49:07.213Z,45.28
2016-09-29T07:49:32.788Z,45.28
2016-09-29T07:49:58.365Z,45.28
2016-09-29T07:50:23.945Z,45.48
2016-09-29T07:50:49.578Z,45.48
2016-09-29T07:51:15.134Z,45.28
2016-09-29T07:51:40.807Z,45.09
2016-09-29T07:52:06.421Z,45.28
2016-09-29T07:52:31.998Z,45.18
2016-09-29T07:52:57.546Z,45.38
2016-09-29T07:53:23.138Z,45.09
2016-09-29T07:53:48.727Z,45.18
2016-09-29T07:54:14.303Z,44.9
2016-09-29T07:54:39.972Z,45
2016-09-29T07:55:05.581Z,44.9
2016-09-29T07:55:31.119Z,44.9
2016-09-29T07:55:56.673Z,44.6
2016-09-29T07:56:22.336Z,44.8
2016-09-29T07:56:47.886Z,45
2016-09-29T07:57:13.446Z,44.9
2016-09-29T07:57:39.025Z,45
2016-09-29T07:58:04.598Z,44.9
2016-09-29T07:58:30.145Z,44.7
2016-09-29T07:58:55.678Z,44.9
2016-09-29T07:59:22.019Z,44.9
2016-09-29T07:59:47.586Z,44.9
2016-09-29T08:00:13.125Z,44.9
2016-09-29T08:00:38.691Z,44.9
2016-09-29T08:01:04.336Z,45
2016-09-29T08:01:29.912Z,44.9
2016-09-29T08:01:55.468Z,45.09
2016-09-29T08:02:21.294Z,44.9
2016-09-29T08:02:46.864Z,44.8
2016-09-29T08:03:12.422Z,45
2016-09-29T08:03:37.992Z,45.09
2016-09-29T08:04:03.557Z,45.09
2016-09-29T08:04:29.130Z,45
2016-09-29T08:04:54.754Z,44.9
2016-09-29T08:05:20.291Z,44.9
2016-09-29T08:05:45.849Z,44.9
2016-09-29T08:06:11.416Z,44.8
2016-09-29T08:06:36.993Z,44.9
2016-09-29T08:07:02.554Z,44.9
2016-09-29T08:07:28.132Z,44.8
2016-09-29T08:07:53.703Z,44.8
2016-09-29T08:08:19.271Z,44.8
2016-09-29T08:08:44.894Z,44.8
2016-09-29T08:09:10.479Z,44.8
2016-09-29T08:09:36.044Z,44.9
2016-09-29T08:10:01.615Z,44.8
2016-09-29T08:10:27.170Z,44.8
2016-09-29T08:10:52.731Z,44.8
2016-09-29T08:11:18.313Z,45
2016-09-29T08:11:43.879Z,44.8
2016-09-29T08:12:09.460Z,44.8
2016-09-29T08:12:35.037Z,44.7
2016-09-29T08:13:00.717Z,44.8
2016-09-29T08:13:26.339Z,45
2016-09-29T08:13:51.999Z,44.7
2016-09-29T08:14:17.584Z,44.7
2016-09-29T08:15:15.692Z,45.09
2016-09-29T08:15:41.415Z,44.7
2016-09-29T08:16:06.965Z,44.73
2016-09-29T08:16:32.537Z,44.7
2016-09-29T08:16:58.092Z,44.7
2016-09-29T08:17:23.724Z,44.7
2016-09-29T08:17:49.354Z,44.7
2016-09-29T08:18:14.920Z,44.7
2016-09-29T08:18:40.502Z,44.9
2016-09-29T08:19:06.035Z,44.7
2016-09-29T08:19:31.588Z,44.8
2016-09-29T08:19:57.145Z,44.8
2016-09-29T08:20:22.670Z,44.73
2016-09-29T08:20:48.239Z,44.8
2016-09-29T08:21:13.846Z,44.7
2016-09-29T08:21:39.404Z,44.8
2016-09-29T08:22:05.083Z,44.7
2016-09-29T08:22:30.668Z,44.8
2016-09-29T08:22:56.219Z,44.7
2016-09-29T08:23:21.893Z,44.82
2016-09-29T08:23:47.474Z,44.8
2016-09-29T08:24:13.036Z,44.9
2016-09-29T08:24:38.587Z,44.9
2016-09-29T08:25:04.141Z,44.7
2016-09-29T08:25:29.695Z,44.9
2016-09-29T08:25:55.271Z,44.8
2016-09-29T08:26:20.860Z,44.7
2016-09-29T08:26:46.504Z,44.92
2016-09-29T08:27:12.069Z,44.7
2016-09-29T08:27:37.625Z,44.8
2016-09-29T08:28:03.204Z,44.8
2016-09-29T08:28:28.776Z,44.8
2016-09-29T08:28:54.350Z,44.9
2016-09-29T08:29:19.932Z,44.9
2016-09-29T08:29:45.494Z,44.7
2016-09-29T08:30:11.052Z,44.8
2016-09-29T08:30:36.624Z,44.73
2016-09-29T08:31:02.265Z,44.8
2016-09-29T08:31:27.833Z,44.82
2016-09-29T08:31:53.399Z,44.8
2016-09-29T08:32:18.991Z,44.82
2016-09-29T08:32:44.556Z,44.82
2016-09-29T08:33:48.131Z,44.8
2016-09-29T08:34:13.704Z,45.11
2016-09-29T08:34:39.275Z,44.8
2016-09-29T08:35:04.852Z,44.7
2016-09-29T08:35:30.505Z,45.11
2016-09-29T08:35:56.056Z,44.73
2016-09-29T08:36:21.621Z,44.9
2016-09-29T08:36:47.269Z,44.92
2016-09-29T08:37:12.851Z,44.92
2016-09-29T08:37:38.426Z,44.92
2016-09-29T08:38:04.003Z,44.8
2016-09-29T08:38:29.552Z,44.9
2016-09-29T08:38:55.131Z,45.01
2016-09-29T08:39:20.701Z,45.11
2016-09-29T08:39:46.458Z,45.09
2016-09-29T08:40:12.093Z,45.01
2016-09-29T08:40:37.684Z,44.92
2016-09-29T08:41:03.257Z,44.9
2016-09-29T08:41:28.810Z,44.32
2016-09-29T08:41:54.377Z,45.01
2016-09-29T08:42:20.064Z,44.92
2016-09-29T08:42:45.628Z,44.92
2016-09-29T08:43:11.190Z,45.01
2016-09-29T08:43:36.750Z,44.82
2016-09-29T08:44:02.318Z,44.92
2016-09-29T08:46:57.432Z,44.8
2016-09-29T08:48:08.869Z,45.01
2016-09-29T08:48:34.452Z,44.43
2016-09-29T08:49:00.029Z,44.92
2016-09-29T08:49:25.598Z,44.92
2016-09-29T08:49:51.155Z,44.34
2016-09-29T08:50:16.722Z,44.92
2016-09-29T08:50:42.351Z,44.92
2016-09-29T08:51:07.918Z,44.43
2016-09-29T08:51:33.486Z,44.53
2016-09-29T08:51:59.071Z,44.73
2016-09-29T08:52:24.662Z,44.53
2016-09-29T08:52:50.255Z,44.53
2016-09-29T08:53:15.817Z,44.53
2016-09-29T08:54:14.017Z,44.63
2016-09-29T08:54:39.580Z,44.53
2016-09-29T08:55:05.151Z,44.53
2016-09-29T08:55:30.809Z,44.53
2016-09-29T08:55:56.441Z,44.63
2016-09-29T08:56:22.012Z,44.63
2016-09-29T08:56:47.571Z,44.53
2016-09-29T08:57:13.116Z,44.53